createdAt,value
2022-12-08T00:00:39.705Z,4.00
2022-12-08T00:03:06.523Z,4.10
2022-12-08T00:11:23.368Z,4.00
2022-12-08T00:13:50.004Z,4.00
2022-12-08T00:16:16.817Z,4.00
2022-12-08T00:18:43.443Z,4.00
2022-12-08T00:21:10.243Z,4.00
2022-12-08T00:26:12.442Z,4.00
2022-12-08T00:28:39.119Z,4.00
2022-12-08T00:31:10.626Z,3.90
2022-12-08T00:33:38.640Z,3.90
2022-12-08T00:36:10.236Z,3.80
2022-12-08T00:41:17.836Z,3.80
2022-12-08T00:43:44.732Z,3.70
2022-12-08T00:46:12.209Z,3.70
2022-12-08T00:48:39.223Z,3.80
2022-12-08T00:51:07.056Z,3.80
2022-12-08T00:56:14.075Z,3.90
2022-12-08T00:58:40.775Z,3.80
2022-12-08T01:01:11.725Z,3.80
2022-12-08T01:03:38.449Z,3.80
2022-12-08T01:06:06.850Z,3.80
2022-12-08T01:08:40.788Z,3.80
2022-12-08T01:11:10.201Z,3.80
2022-12-08T01:13:37.392Z,3.80
2022-12-08T01:16:04.332Z,3.80
2022-12-08T01:18:32.442Z,3.80
2022-12-08T01:21:06.877Z,3.80
2022-12-08T01:26:05.676Z,3.80
2022-12-08T01:28:33.068Z,3.80
2022-12-08T01:31:01.745Z,3.80
2022-12-08T01:33:28.872Z,3.80
2022-12-08T01:35:55.564Z,3.80
2022-12-08T01:46:24.263Z,3.70
2022-12-08T01:48:54.085Z,3.80
2022-12-08T01:51:22.271Z,3.80
2022-12-08T01:53:49.966Z,3.80
2022-12-08T01:58:56.948Z,3.80
2022-12-08T02:01:23.821Z,3.80
2022-12-08T02:04:00.878Z,3.90
2022-12-08T02:06:29.553Z,3.90
2022-12-08T02:08:56.994Z,3.80
2022-12-08T02:37:55.014Z,4.10
2022-12-08T02:40:28.264Z,4.10
2022-12-08T02:43:02.286Z,4.10
2022-12-08T02:45:39.785Z,4.10
2022-12-08T02:48:06.681Z,4.10
2022-12-08T02:50:33.381Z,4.10
2022-12-08T03:03:47.582Z,4.10
2022-12-08T03:06:35.627Z,4.10
2022-12-08T03:09:16.691Z,4.10
2022-12-08T03:11:48.859Z,4.00
2022-12-08T03:14:17.863Z,4.10
2022-12-08T03:16:47.222Z,4.10
2022-12-08T03:19:20.124Z,4.00
2022-12-08T03:22:02.782Z,4.00
2022-12-08T03:24:36.687Z,4.00
2022-12-08T03:27:11.350Z,4.10
2022-12-08T03:29:38.225Z,4.00
2022-12-08T03:37:31.078Z,4.00
2022-12-08T03:39:59.407Z,4.00
2022-12-08T03:42:26.100Z,4.10
2022-12-08T03:44:52.774Z,4.10
2022-12-08T03:47:25.684Z,4.10
2022-12-08T03:52:27.940Z,4.20
2022-12-08T03:54:54.508Z,4.20
2022-12-08T03:57:21.770Z,4.20
2022-12-08T03:59:48.380Z,4.20
2022-12-08T04:02:16.425Z,4.20
2022-12-08T04:12:50.287Z,4.10
2022-12-08T04:15:16.986Z,4.00
2022-12-08T04:17:43.734Z,3.90
2022-12-08T04:20:10.976Z,3.90
2022-12-08T04:31:04.663Z,3.90
2022-12-08T04:33:31.821Z,3.90
2022-12-08T04:35:58.549Z,3.90
2022-12-08T04:38:25.213Z,3.80
2022-12-08T04:43:26.935Z,3.80
2022-12-08T04:45:53.575Z,3.90
2022-12-08T04:48:20.251Z,3.80
2022-12-08T04:50:46.979Z,3.90
2022-12-08T04:53:14.249Z,4.00
2022-12-08T04:58:17.586Z,4.10
2022-12-08T05:00:44.902Z,4.10
2022-12-08T05:03:11.845Z,4.20
2022-12-08T05:05:38.945Z,4.10
2022-12-08T05:08:05.982Z,4.00
2022-12-08T05:18:44.887Z,4.00
2022-12-08T05:21:11.873Z,3.90
2022-12-08T05:23:38.558Z,3.90
2022-12-08T05:26:05.353Z,3.90
2022-12-08T05:31:13.230Z,3.90
2022-12-08T05:33:40.356Z,3.90
2022-12-08T05:36:07.560Z,3.90
2022-12-08T05:38:34.232Z,3.90
2022-12-08T05:41:00.851Z,3.80
2022-12-08T05:46:03.343Z,3.80
2022-12-08T05:48:30.014Z,3.90
2022-12-08T05:50:57.104Z,3.90
2022-12-08T05:53:23.845Z,4.00
2022-12-08T05:55:50.635Z,4.00
2022-12-08T06:01:05.104Z,4.20
2022-12-08T06:03:31.924Z,4.20
2022-12-08T06:05:58.737Z,4.30
2022-12-08T06:08:26.721Z,4.30
2022-12-08T06:10:55.711Z,4.30
2022-12-08T06:16:04.205Z,4.30
2022-12-08T06:18:32.827Z,4.30
2022-12-08T06:21:08.773Z,4.40
2022-12-08T06:23:37.570Z,4.40
2022-12-08T06:26:06.688Z,4.40
2022-12-08T06:28:35.281Z,4.40
2022-12-08T06:33:49.031Z,4.30
2022-12-08T06:36:18.126Z,4.30
2022-12-08T06:38:45.174Z,4.30
2022-12-08T06:41:12.429Z,4.30
2022-12-08T06:43:39.653Z,4.30
2022-12-08T06:46:12.220Z,4.30
2022-12-08T06:48:39.082Z,4.30
2022-12-08T06:51:10.790Z,4.30
2022-12-08T06:53:38.261Z,4.40
2022-12-08T06:58:52.697Z,4.40
2022-12-08T07:01:19.659Z,4.40
2022-12-08T07:03:47.284Z,4.40
2022-12-08T07:06:18.356Z,4.40
2022-12-08T07:08:44.958Z,4.30
2022-12-08T07:11:15.270Z,4.30
2022-12-08T07:13:44.889Z,4.40
2022-12-08T07:16:12.311Z,4.40
2022-12-08T07:18:39.640Z,4.40
2022-12-08T07:21:08.363Z,4.30
2022-12-08T07:23:35.536Z,4.40
2022-12-08T07:26:07.689Z,4.40
2022-12-08T07:28:36.362Z,4.40
2022-12-08T07:31:13.448Z,4.40
2022-12-08T07:33:42.028Z,4.40
2022-12-08T07:36:09.319Z,4.40
2022-12-08T07:38:36.428Z,4.50
2022-12-08T07:41:04.493Z,4.50
2022-12-08T07:43:31.246Z,4.50
2022-12-08T07:48:42.101Z,4.50
2022-12-08T07:51:09.305Z,4.60
2022-12-08T07:53:36.028Z,4.50
2022-12-08T07:56:06.763Z,4.50
2022-12-08T07:58:33.922Z,4.60
2022-12-08T08:03:33.429Z,4.50
2022-12-08T08:06:04.317Z,4.50
2022-12-08T08:08:31.671Z,4.50
2022-12-08T08:10:58.766Z,4.50
2022-12-08T08:13:25.639Z,4.60
2022-12-08T08:16:01.838Z,4.60
2022-12-08T08:18:34.902Z,4.60
2022-12-08T08:21:15.778Z,4.60
2022-12-08T08:23:48.769Z,4.60
2022-12-08T08:26:16.398Z,4.60
2022-12-08T08:28:45.537Z,4.60
2022-12-08T08:31:13.254Z,4.60
2022-12-08T08:33:40.026Z,4.60
2022-12-08T08:36:08.251Z,4.60
2022-12-08T08:38:36.590Z,4.70
2022-12-08T08:41:09.367Z,4.70
2022-12-08T08:43:38.535Z,4.70
2022-12-08T08:46:06.638Z,4.80
2022-12-08T08:48:33.892Z,4.80
2022-12-08T08:51:07.798Z,4.80
2022-12-08T08:53:34.507Z,4.90
2022-12-08T08:56:02.850Z,4.90
2022-12-08T08:58:29.895Z,4.90
2022-12-08T09:03:26.951Z,5.00
2022-12-08T09:05:55.841Z,5.00
2022-12-08T09:08:23.549Z,5.00
2022-12-08T09:10:50.484Z,5.10
2022-12-08T09:13:17.156Z,5.10
2022-12-08T09:18:18.335Z,5.10
2022-12-08T09:20:45.268Z,5.00
2022-12-08T09:23:11.939Z,5.10
2022-12-08T09:25:39.621Z,5.10
2022-12-08T09:28:06.315Z,5.10
2022-12-08T09:33:15.695Z,5.10
2022-12-08T09:35:42.402Z,5.10
2022-12-08T09:38:09.180Z,5.10
2022-12-08T09:40:50.777Z,5.10
2022-12-08T09:43:17.339Z,5.10
2022-12-08T09:45:47.320Z,5.10
2022-12-08T09:48:17.856Z,5.10
2022-12-08T09:50:50.393Z,5.20
2022-12-08T09:53:32.045Z,5.20
2022-12-08T09:56:09.353Z,5.30
2022-12-08T09:58:51.832Z,5.30
2022-12-08T10:01:20.309Z,5.40
2022-12-08T10:03:47.872Z,5.30
2022-12-08T10:14:35.424Z,5.40
2022-12-08T10:17:11.778Z,5.30
2022-12-08T10:19:41.133Z,5.30
2022-12-08T10:22:25.644Z,5.40
2022-12-08T10:25:02.539Z,5.30
2022-12-08T10:30:13.126Z,5.30
2022-12-08T10:32:41.374Z,5.20
2022-12-08T10:35:13.737Z,5.20
2022-12-08T10:42:59.780Z,5.30
2022-12-08T10:51:00.713Z,5.40
2022-12-08T10:53:30.548Z,5.50
2022-12-08T10:56:03.958Z,5.50
2022-12-08T10:58:34.115Z,5.60
2022-12-08T11:01:11.484Z,5.60
2022-12-08T11:03:59.924Z,5.70
2022-12-08T11:09:00.672Z,6.10
2022-12-08T11:11:58.752Z,6.20
2022-12-08T11:14:29.673Z,6.20
2022-12-08T11:17:04.319Z,6.30
2022-12-08T11:19:31.260Z,6.40
2022-12-08T11:21:58.458Z,6.40
2022-12-08T11:24:32.259Z,6.30
2022-12-08T11:27:10.818Z,6.30
2022-12-08T11:29:45.940Z,6.30
2022-12-08T11:32:13.522Z,6.20
2022-12-08T11:34:48.878Z,6.10
2022-12-08T11:37:22.776Z,6.00
2022-12-08T11:39:52.097Z,5.90
2022-12-08T11:42:21.969Z,5.70
2022-12-08T11:44:57.455Z,5.70
2022-12-08T11:47:25.853Z,5.80
2022-12-08T11:50:05.313Z,5.80
2022-12-08T11:52:46.184Z,5.80
2022-12-08T11:55:20.962Z,5.80
2022-12-08T11:57:48.974Z,5.80
2022-12-08T12:00:16.784Z,5.80
2022-12-08T12:02:49.831Z,5.80
2022-12-08T12:17:45.841Z,5.90
2022-12-08T12:20:35.099Z,5.80
2022-12-08T12:26:03.729Z,5.70
2022-12-08T12:28:46.330Z,5.70
2022-12-08T12:31:16.827Z,5.70
2022-12-08T12:33:44.635Z,5.80
2022-12-08T12:39:07.257Z,5.70
2022-12-08T12:41:44.200Z,5.70
2022-12-08T12:44:13.905Z,5.60
2022-12-08T12:46:41.002Z,5.60
2022-12-08T12:49:48.794Z,5.70
2022-12-08T12:52:15.536Z,5.70
2022-12-08T12:54:48.016Z,5.80
2022-12-08T12:57:14.814Z,5.80
2022-12-08T13:05:33.382Z,5.80
2022-12-08T13:08:08.086Z,5.80
2022-12-08T13:10:41.122Z,5.80
2022-12-08T13:13:12.194Z,5.80
2022-12-08T13:15:56.328Z,5.80
2022-12-08T13:18:29.610Z,5.80
2022-12-08T13:21:02.123Z,5.80
2022-12-08T13:34:36.390Z,5.70
2022-12-08T13:37:20.921Z,5.60
2022-12-08T13:39:56.566Z,5.50
2022-12-08T13:43:13.284Z,5.50
2022-12-08T13:46:34.666Z,5.60
2022-12-08T13:57:36.153Z,5.40
2022-12-08T14:00:15.608Z,5.40
2022-12-08T14:17:24.994Z,5.30
2022-12-08T14:19:58.670Z,5.30
2022-12-08T14:24:58.357Z,5.30
2022-12-08T14:27:26.545Z,5.30
2022-12-08T14:30:07.692Z,5.20
2022-12-08T14:38:19.570Z,5.20
2022-12-08T14:41:01.088Z,5.20
2022-12-08T14:43:28.908Z,5.20
2022-12-08T14:46:05.043Z,5.20
2022-12-08T14:48:33.423Z,5.20
2022-12-08T14:51:18.985Z,5.20
2022-12-08T14:54:06.033Z,5.20
2022-12-08T14:56:39.009Z,5.20
2022-12-08T15:05:11.163Z,5.10
2022-12-08T15:07:50.626Z,5.10
2022-12-08T15:10:17.324Z,5.10
2022-12-08T15:13:04.851Z,5.10
2022-12-08T15:15:32.801Z,5.00
2022-12-08T15:18:13.495Z,5.00
2022-12-08T15:20:47.121Z,5.00
2022-12-08T15:26:04.772Z,4.90
2022-12-08T15:28:31.438Z,4.90
2022-12-08T15:30:58.637Z,4.90
2022-12-08T15:33:25.851Z,4.90
2022-12-08T15:35:53.244Z,4.80
2022-12-08T15:41:50.703Z,4.70
2022-12-08T15:47:33.132Z,4.70
2022-12-08T15:49:59.886Z,4.60
2022-12-08T15:52:26.686Z,4.50
2022-12-08T15:54:54.786Z,4.50
2022-12-08T15:58:04.550Z,4.50
2022-12-08T16:04:09.360Z,4.40
2022-12-08T16:07:04.769Z,4.30
2022-12-08T16:09:18.163Z,4.30
2022-12-08T16:12:07.702Z,4.30
2022-12-08T16:17:22.976Z,4.30
2022-12-08T16:19:49.728Z,4.20
2022-12-08T16:25:18.342Z,4.20
2022-12-08T16:30:37.658Z,4.20
2022-12-08T16:33:04.716Z,4.10
2022-12-08T16:35:37.990Z,4.10
2022-12-08T16:43:43.380Z,4.00
2022-12-08T16:46:18.366Z,3.90
2022-12-08T16:48:45.883Z,3.90
2022-12-08T16:51:25.121Z,3.90
2022-12-08T16:53:55.324Z,3.80
2022-12-08T16:56:28.995Z,3.80
2022-12-08T17:07:06.847Z,3.70
2022-12-08T17:09:33.662Z,3.70
2022-12-08T17:12:04.130Z,3.60
2022-12-08T17:14:32.567Z,3.60
2022-12-08T17:19:44.591Z,3.50
2022-12-08T17:22:12.368Z,3.50
2022-12-08T17:24:40.176Z,3.60
2022-12-08T17:27:06.972Z,3.50
2022-12-08T17:29:34.808Z,3.50
2022-12-08T17:34:36.622Z,3.40
2022-12-08T17:37:03.650Z,3.30
2022-12-08T17:39:30.610Z,3.30
2022-12-08T17:41:57.614Z,3.30
2022-12-08T17:44:24.543Z,3.30
2022-12-08T17:49:28.166Z,3.30
2022-12-08T17:51:57.042Z,3.30
2022-12-08T17:54:23.852Z,3.30
2022-12-08T17:56:51.052Z,3.20
2022-12-08T17:59:17.775Z,3.20
2022-12-08T18:07:30.857Z,3.30
2022-12-08T18:09:57.958Z,3.20
2022-12-08T18:12:24.882Z,3.10
2022-12-08T18:14:52.903Z,3.10
2022-12-08T18:17:20.935Z,3.10
2022-12-08T18:25:22.266Z,3.20
2022-12-08T18:27:50.432Z,3.20
2022-12-08T18:30:18.060Z,3.20
2022-12-08T18:32:45.151Z,3.30
2022-12-08T18:35:14.252Z,3.20
2022-12-08T18:40:18.424Z,3.10
2022-12-08T18:42:45.400Z,3.00
2022-12-08T18:45:12.487Z,2.90
2022-12-08T18:47:40.207Z,2.90
2022-12-08T18:50:08.682Z,2.90
2022-12-08T18:52:46.839Z,2.80
2022-12-08T18:55:14.221Z,2.90
2022-12-08T18:57:43.243Z,2.90
2022-12-08T19:00:13.486Z,2.90
2022-12-08T19:02:40.691Z,2.90
2022-12-08T19:05:08.725Z,2.90
2022-12-08T19:13:15.644Z,2.90
2022-12-08T19:15:42.482Z,3.00
2022-12-08T19:18:09.694Z,2.90
2022-12-08T19:20:37.390Z,2.80
2022-12-08T19:23:04.146Z,2.80
2022-12-08T19:33:33.905Z,2.60
2022-12-08T19:36:08.578Z,2.60
2022-12-08T19:38:55.468Z,2.60
2022-12-08T19:41:41.486Z,2.60
2022-12-08T19:44:27.322Z,2.60
2022-12-08T19:46:54.498Z,2.60
2022-12-08T19:52:04.203Z,2.60
2022-12-08T19:54:31.022Z,2.70
2022-12-08T19:56:58.175Z,2.60
2022-12-08T19:59:30.390Z,2.50
2022-12-08T20:02:00.406Z,2.50
2022-12-08T20:09:59.776Z,2.50
2022-12-08T20:12:27.800Z,2.50
2022-12-08T20:14:54.576Z,2.40
2022-12-08T20:17:21.561Z,2.30
2022-12-08T20:19:48.340Z,2.20
2022-12-08T20:22:15.177Z,2.30
2022-12-08T20:24:42.540Z,2.20
2022-12-08T20:27:10.322Z,2.10
2022-12-08T20:29:37.316Z,2.10
2022-12-08T20:32:04.485Z,2.00
2022-12-08T20:34:31.702Z,2.00
2022-12-08T20:36:58.285Z,2.10
2022-12-08T20:39:25.076Z,2.00
2022-12-08T20:41:54.436Z,2.00
2022-12-08T20:44:21.719Z,1.90
2022-12-08T20:46:49.749Z,1.80
2022-12-08T20:49:16.769Z,1.80
2022-12-08T20:51:44.431Z,1.80
2022-12-08T20:54:11.545Z,1.80
2022-12-08T20:56:43.361Z,1.90
2022-12-08T20:59:17.889Z,1.80
2022-12-08T21:01:45.589Z,1.90
2022-12-08T21:04:13.566Z,1.90
2022-12-08T21:06:40.625Z,1.80
2022-12-08T21:09:07.748Z,1.80
2022-12-08T21:11:35.823Z,1.80
2022-12-08T21:14:03.898Z,1.90
2022-12-08T21:16:31.090Z,1.80
2022-12-08T21:21:39.988Z,1.70
2022-12-08T21:24:07.280Z,1.70
2022-12-08T21:26:34.516Z,1.80
2022-12-08T21:29:01.728Z,2.00
2022-12-08T21:31:31.913Z,2.00
2022-12-08T21:36:38.830Z,2.00
2022-12-08T21:39:11.259Z,2.00
2022-12-08T21:41:56.972Z,1.90
2022-12-08T21:44:24.107Z,1.90
2022-12-08T21:46:51.255Z,1.90
2022-12-08T21:49:19.500Z,1.90
2022-12-08T21:51:46.600Z,1.80
2022-12-08T21:54:18.609Z,1.80
2022-12-08T21:56:46.014Z,1.80
2022-12-08T21:59:12.920Z,2.00
2022-12-08T22:01:40.188Z,2.00
2022-12-08T22:06:37.902Z,2.00
2022-12-08T22:09:05.111Z,2.00
2022-12-08T22:11:32.268Z,2.00
2022-12-08T22:14:00.359Z,2.00
2022-12-08T22:16:27.407Z,2.00
2022-12-08T22:21:35.610Z,2.10
2022-12-08T22:24:02.285Z,2.10
2022-12-08T22:26:29.109Z,2.00
2022-12-08T22:28:55.866Z,2.00
2022-12-08T22:31:22.741Z,2.00
2022-12-08T22:36:29.896Z,2.10
2022-12-08T22:38:56.757Z,2.20
2022-12-08T22:41:23.883Z,2.20
2022-12-08T22:43:51.278Z,2.20
2022-12-08T22:46:20.653Z,2.30
2022-12-08T22:51:28.995Z,2.30
2022-12-08T22:53:56.062Z,2.30
2022-12-08T22:56:23.042Z,2.30
2022-12-08T22:58:49.857Z,2.30
2022-12-08T23:01:30.709Z,2.30
2022-12-08T23:04:01.627Z,2.30
2022-12-08T23:06:30.320Z,2.40
2022-12-08T23:08:57.549Z,2.40
2022-12-08T23:11:29.435Z,2.30
2022-12-08T23:13:59.840Z,2.30
2022-12-08T23:16:27.150Z,2.30
2022-12-08T23:24:15.896Z,2.30
2022-12-08T23:26:43.541Z,2.30
2022-12-08T23:29:10.913Z,2.30
2022-12-08T23:31:38.548Z,2.20
2022-12-08T23:34:05.518Z,2.20
2022-12-08T23:47:35.766Z,2.20
2022-12-08T23:50:02.906Z,2.20
2022-12-08T23:52:29.654Z,2.20
